createdAt,value
2023-01-25T00:34:04.251Z,1022.87
2023-01-25T00:35:04.190Z,1022.90
2023-01-25T00:36:04.262Z,1022.89
2023-01-25T00:37:04.182Z,1022.85
2023-01-25T00:38:04.151Z,1022.76
2023-01-25T00:39:04.146Z,1022.76
2023-01-25T00:40:04.131Z,1022.74
2023-01-25T00:41:04.135Z,1022.78
2023-01-25T00:42:04.111Z,1022.72
2023-01-25T00:43:04.117Z,1022.67
2023-01-25T00:44:04.094Z,1022.63
2023-01-25T00:45:09.467Z,1022.66
2023-01-25T00:46:04.124Z,1022.66
2023-01-25T00:47:04.069Z,1022.67
2023-01-25T00:48:04.048Z,1022.68
2023-01-25T00:49:04.035Z,1022.65
2023-01-25T00:50:04.064Z,1022.70
2023-01-25T00:51:04.048Z,1022.59
2023-01-25T00:52:04.019Z,1022.63
2023-01-25T00:53:03.991Z,1022.59
2023-01-25T00:54:03.979Z,1022.58
2023-01-25T00:55:03.976Z,1022.57
2023-01-25T00:56:08.988Z,1022.63
2023-01-25T00:57:03.953Z,1022.56
2023-01-25T00:58:03.951Z,1022.53
2023-01-25T00:59:03.935Z,1022.52
2023-01-25T01:00:03.910Z,1022.47
2023-01-25T01:01:03.946Z,1022.54
2023-01-25T01:02:03.888Z,1022.54
2023-01-25T01:03:03.880Z,1022.54
2023-01-25T01:04:05.714Z,1022.58
2023-01-25T01:05:03.890Z,1022.57
2023-01-25T01:06:03.901Z,1022.57
2023-01-25T01:07:08.858Z,1022.56
2023-01-25T01:08:03.824Z,1022.58
2023-01-25T01:09:03.821Z,1022.54
2023-01-25T01:10:03.799Z,1022.56
2023-01-25T01:11:03.788Z,1022.53
2023-01-25T01:12:03.797Z,1022.52
2023-01-25T01:13:03.787Z,1022.53
2023-01-25T01:14:03.761Z,1022.54
2023-01-25T01:15:03.742Z,1022.54
2023-01-25T01:16:03.744Z,1022.48
2023-01-25T01:17:03.796Z,1022.50
2023-01-25T01:18:08.757Z,1022.44
2023-01-25T01:19:03.696Z,1022.45
2023-01-25T01:20:03.686Z,1022.39
2023-01-25T01:21:03.702Z,1022.39
2023-01-25T01:22:03.714Z,1022.34
2023-01-25T01:23:03.678Z,1022.44
2023-01-25T01:24:03.709Z,1022.36
2023-01-25T01:25:03.636Z,1022.34
2023-01-25T01:26:03.625Z,1022.39
2023-01-25T01:27:03.657Z,1022.37
2023-01-25T01:28:03.600Z,1022.30
2023-01-25T01:29:08.703Z,1022.39
2023-01-25T01:30:03.575Z,1022.37
2023-01-25T01:31:03.561Z,1022.37
2023-01-25T01:32:03.696Z,1022.35
2023-01-25T01:33:03.539Z,1022.46
2023-01-25T01:34:03.534Z,1022.45
2023-01-25T01:35:03.517Z,1022.42
2023-01-25T01:36:03.509Z,1022.44
2023-01-25T01:37:03.503Z,1022.44
2023-01-25T01:38:03.521Z,1022.42
2023-01-25T01:39:03.472Z,1022.40
2023-01-25T01:40:08.488Z,1022.40
2023-01-25T01:41:03.466Z,1022.38
2023-01-25T01:42:03.449Z,1022.41
2023-01-25T01:43:03.432Z,1022.39
2023-01-25T01:44:03.421Z,1022.38
2023-01-25T01:45:03.422Z,1022.42
2023-01-25T01:46:03.541Z,1022.38
2023-01-25T01:47:03.395Z,1022.41
2023-01-25T01:48:03.392Z,1022.43
2023-01-25T01:49:03.374Z,1022.44
2023-01-25T01:50:03.351Z,1022.38
2023-01-25T01:51:08.365Z,1022.40
2023-01-25T01:52:03.399Z,1022.37
2023-01-25T01:53:03.342Z,1022.37
2023-01-25T01:54:03.339Z,1022.32
2023-01-25T01:55:03.294Z,1022.37
2023-01-25T01:56:03.283Z,1022.35
2023-01-25T01:57:03.333Z,1022.36
2023-01-25T01:58:03.259Z,1022.36
2023-01-25T01:59:03.249Z,1022.38
2023-01-25T02:00:03.244Z,1022.37
2023-01-25T02:01:03.279Z,1022.42
2023-01-25T02:02:08.278Z,1022.41
2023-01-25T02:03:03.212Z,1022.45
2023-01-25T02:04:03.215Z,1022.42
2023-01-25T02:05:03.184Z,1022.38
2023-01-25T02:06:03.172Z,1022.44
2023-01-25T02:07:03.169Z,1022.41
2023-01-25T02:08:03.152Z,1022.41
2023-01-25T02:09:03.192Z,1022.40
2023-01-25T02:10:03.146Z,1022.43
2023-01-25T02:11:03.113Z,1022.34
2023-01-25T02:12:03.105Z,1022.40
2023-01-25T02:13:08.126Z,1022.33
2023-01-25T02:14:03.077Z,1022.30
2023-01-25T02:15:03.068Z,1022.33
2023-01-25T02:16:03.143Z,1022.30
2023-01-25T02:17:03.060Z,1022.28
2023-01-25T02:18:03.049Z,1022.29
2023-01-25T02:19:03.062Z,1022.35
2023-01-25T02:20:03.032Z,1022.37
2023-01-25T02:21:03.000Z,1022.36
2023-01-25T02:22:02.994Z,1022.38
2023-01-25T02:23:03.000Z,1022.33
2023-01-25T02:24:08.036Z,1022.42
2023-01-25T02:25:02.963Z,1022.31
2023-01-25T02:26:02.967Z,1022.28
2023-01-25T02:27:02.961Z,1022.24
2023-01-25T02:28:02.940Z,1022.23
2023-01-25T02:29:02.915Z,1022.23
2023-01-25T02:30:02.911Z,1022.22
2023-01-25T02:31:02.964Z,1022.18
2023-01-25T02:32:02.944Z,1022.19
2023-01-25T02:33:02.945Z,1022.19
2023-01-25T02:34:02.861Z,1022.19
2023-01-25T02:35:08.215Z,1022.21
2023-01-25T02:36:02.837Z,1022.25
2023-01-25T02:37:02.823Z,1022.18
2023-01-25T02:38:02.825Z,1022.18
2023-01-25T02:39:02.827Z,1022.14
2023-01-25T02:40:02.844Z,1022.15
2023-01-25T02:41:02.782Z,1022.20
2023-01-25T02:42:02.834Z,1022.19
2023-01-25T02:43:02.781Z,1022.15
2023-01-25T02:44:02.752Z,1022.18
2023-01-25T02:45:02.734Z,1022.14
2023-01-25T02:46:07.815Z,1022.17
2023-01-25T02:47:02.715Z,1022.21
2023-01-25T02:48:02.716Z,1022.18
2023-01-25T02:49:02.696Z,1022.14
2023-01-25T02:50:02.695Z,1022.13
2023-01-25T02:51:02.672Z,1022.12
2023-01-25T02:52:02.667Z,1022.12
2023-01-25T02:53:02.659Z,1022.15
2023-01-25T02:54:02.652Z,1022.15
2023-01-25T02:55:02.627Z,1022.11
2023-01-25T02:56:02.629Z,1022.14
2023-01-25T02:57:07.646Z,1022.11
2023-01-25T02:58:02.616Z,1022.10
2023-01-25T02:59:02.595Z,1022.14
2023-01-25T03:00:02.577Z,1022.11
2023-01-25T03:01:02.572Z,1022.09
2023-01-25T03:02:02.553Z,1022.16
2023-01-25T03:03:02.584Z,1022.20
2023-01-25T03:04:02.544Z,1022.11
2023-01-25T03:05:02.513Z,1022.08
2023-01-25T03:06:02.511Z,1022.20
2023-01-25T03:07:02.565Z,1022.05
2023-01-25T03:08:07.504Z,1022.08
2023-01-25T03:09:02.486Z,1022.04
2023-01-25T03:10:02.511Z,1021.99
2023-01-25T03:11:02.447Z,1022.08
2023-01-25T03:12:02.461Z,1022.07
2023-01-25T03:13:02.447Z,1021.99
2023-01-25T03:14:02.535Z,1022.08
2023-01-25T03:15:02.423Z,1022.08
2023-01-25T03:16:02.446Z,1022.08
2023-01-25T03:17:02.383Z,1022.05
2023-01-25T03:18:04.360Z,1022.00
2023-01-25T03:19:07.396Z,1022.00
2023-01-25T03:20:02.350Z,1022.07
2023-01-25T03:21:02.344Z,1021.99
2023-01-25T03:22:02.389Z,1022.00
2023-01-25T03:23:02.316Z,1022.02
2023-01-25T03:24:02.417Z,1022.00
2023-01-25T03:25:02.328Z,1021.98
2023-01-25T03:26:02.300Z,1021.99
2023-01-25T03:27:02.275Z,1022.00
2023-01-25T03:28:02.271Z,1021.99
2023-01-25T03:29:02.300Z,1022.00
2023-01-25T03:30:07.317Z,1021.96
2023-01-25T03:31:02.421Z,1021.97
2023-01-25T03:32:02.358Z,1021.97
2023-01-25T03:33:02.208Z,1021.97
2023-01-25T03:34:02.239Z,1022.00
2023-01-25T03:35:02.254Z,1021.99
2023-01-25T03:36:02.220Z,1021.98
2023-01-25T03:37:02.190Z,1021.94
2023-01-25T03:38:02.261Z,1021.99
2023-01-25T03:39:02.203Z,1021.96
2023-01-25T03:40:02.156Z,1021.96
2023-01-25T03:41:07.139Z,1022.02
2023-01-25T03:42:02.118Z,1021.99
2023-01-25T03:43:02.097Z,1022.12
2023-01-25T03:44:02.606Z,1022.00
2023-01-25T03:45:02.091Z,1022.03
2023-01-25T03:46:02.096Z,1022.09
2023-01-25T03:47:02.151Z,1021.97
2023-01-25T03:48:02.038Z,1021.99
2023-01-25T03:49:02.081Z,1021.97
2023-01-25T03:50:02.017Z,1021.95
2023-01-25T03:51:02.023Z,1021.92
2023-01-25T03:52:07.011Z,1021.95
2023-01-25T03:53:01.979Z,1021.93
2023-01-25T03:54:01.982Z,1022.06
2023-01-25T03:55:01.995Z,1021.94
2023-01-25T03:56:02.005Z,1021.95
2023-01-25T03:57:01.941Z,1022.00
2023-01-25T03:58:01.940Z,1021.90
2023-01-25T03:59:01.918Z,1021.89
2023-01-25T04:00:01.916Z,1021.94
2023-01-25T04:01:02.009Z,1021.98
2023-01-25T04:02:01.991Z,1021.98
2023-01-25T04:03:06.903Z,1021.95
2023-01-25T04:04:01.865Z,1021.97
2023-01-25T04:05:01.889Z,1022.09
2023-01-25T04:06:01.843Z,1022.00
2023-01-25T04:07:01.832Z,1022.07
2023-01-25T04:08:01.840Z,1021.98
2023-01-25T04:09:01.807Z,1022.05
2023-01-25T04:10:01.830Z,1021.97
2023-01-25T04:11:01.784Z,1022.03
2023-01-25T04:12:01.781Z,1021.98
2023-01-25T04:13:01.755Z,1021.94
2023-01-25T04:14:06.778Z,1022.00
2023-01-25T04:15:01.796Z,1021.93
2023-01-25T04:16:01.725Z,1021.95
2023-01-25T04:17:01.739Z,1021.91
2023-01-25T04:18:01.708Z,1021.89
2023-01-25T04:19:01.691Z,1021.93
2023-01-25T04:20:01.745Z,1021.85
2023-01-25T04:21:01.714Z,1021.88
2023-01-25T04:22:01.659Z,1021.90
2023-01-25T04:23:01.664Z,1021.94
2023-01-25T04:24:01.757Z,1021.90
2023-01-25T04:25:07.204Z,1021.89
2023-01-25T04:26:01.634Z,1021.94
2023-01-25T04:27:01.605Z,1021.90
2023-01-25T04:28:01.597Z,1021.85
2023-01-25T04:29:01.625Z,1021.89
2023-01-25T04:30:01.618Z,1021.85
2023-01-25T04:31:01.559Z,1021.84
2023-01-25T04:32:01.680Z,1021.89
2023-01-25T04:33:01.559Z,1021.85
2023-01-25T04:34:01.572Z,1021.83
2023-01-25T04:35:01.531Z,1021.83
2023-01-25T04:36:06.536Z,1021.86
2023-01-25T04:37:01.486Z,1021.84
2023-01-25T04:38:01.481Z,1021.84
2023-01-25T04:39:01.476Z,1021.78
2023-01-25T04:40:01.499Z,1021.82
2023-01-25T04:41:01.443Z,1021.81
2023-01-25T04:42:01.517Z,1021.87
2023-01-25T04:43:01.425Z,1021.87
2023-01-25T04:44:01.416Z,1021.85
2023-01-25T04:45:01.834Z,1021.79
2023-01-25T04:46:01.498Z,1021.81
2023-01-25T04:47:06.436Z,1021.76
2023-01-25T04:48:01.367Z,1021.82
2023-01-25T04:49:01.375Z,1021.76
2023-01-25T04:50:01.386Z,1021.82
2023-01-25T04:51:01.336Z,1021.80
2023-01-25T04:52:01.363Z,1021.78
2023-01-25T04:53:01.313Z,1021.84
2023-01-25T04:54:01.374Z,1021.84
2023-01-25T04:55:01.311Z,1021.83
2023-01-25T04:56:01.305Z,1021.79
2023-01-25T04:57:01.288Z,1021.83
2023-01-25T04:58:06.288Z,1021.82
2023-01-25T04:59:01.248Z,1021.85
2023-01-25T05:00:01.247Z,1021.83
2023-01-25T05:01:01.355Z,1021.77
2023-01-25T05:02:01.315Z,1021.82
2023-01-25T05:03:01.202Z,1021.71
2023-01-25T05:04:01.209Z,1021.73
2023-01-25T05:05:01.215Z,1021.79
2023-01-25T05:06:01.179Z,1021.79
2023-01-25T05:07:01.160Z,1021.77
2023-01-25T05:08:01.150Z,1021.75
2023-01-25T05:09:06.160Z,1021.72
2023-01-25T05:10:01.133Z,1021.79
2023-01-25T05:11:01.116Z,1021.75
2023-01-25T05:12:01.106Z,1021.74
2023-01-25T05:13:01.096Z,1021.74
2023-01-25T05:14:01.089Z,1021.72
2023-01-25T05:15:01.085Z,1021.74
2023-01-25T05:16:01.063Z,1021.73
2023-01-25T05:17:01.110Z,1021.71
2023-01-25T05:18:01.044Z,1021.74
2023-01-25T05:19:01.057Z,1021.70
2023-01-25T05:20:06.077Z,1021.70
2023-01-25T05:21:01.003Z,1021.75
2023-01-25T05:22:00.997Z,1021.73
2023-01-25T05:23:00.979Z,1021.69
2023-01-25T05:24:01.053Z,1021.66
2023-01-25T05:25:00.996Z,1021.65
2023-01-25T05:26:00.950Z,1021.68
2023-01-25T05:27:00.955Z,1021.62
2023-01-25T05:28:00.924Z,1021.59
2023-01-25T05:29:00.913Z,1021.63
2023-01-25T05:30:00.921Z,1021.63
2023-01-25T05:31:05.951Z,1021.63
2023-01-25T05:32:00.959Z,1021.55
2023-01-25T05:33:00.892Z,1021.54
2023-01-25T05:34:00.855Z,1021.57
2023-01-25T05:35:01.157Z,1021.51
2023-01-25T05:36:00.854Z,1021.55
2023-01-25T05:37:00.838Z,1021.56
2023-01-25T05:38:00.826Z,1021.51
2023-01-25T05:39:00.807Z,1021.49
2023-01-25T05:40:00.809Z,1021.51
2023-01-25T05:41:00.794Z,1021.42
2023-01-25T05:42:05.802Z,1021.43
2023-01-25T05:43:00.765Z,1021.45
2023-01-25T05:44:00.781Z,1021.43
2023-01-25T05:45:00.745Z,1021.26
2023-01-25T05:46:00.815Z,1021.38
2023-01-25T05:47:00.727Z,1021.36
2023-01-25T05:48:00.775Z,1021.31
2023-01-25T05:49:00.688Z,1021.35
2023-01-25T05:50:00.688Z,1021.34
2023-01-25T05:51:00.727Z,1021.36
2023-01-25T05:52:00.751Z,1021.36
2023-01-25T05:53:05.690Z,1021.30
2023-01-25T05:54:00.650Z,1021.32
2023-01-25T05:55:00.651Z,1021.28
2023-01-25T05:56:00.617Z,1021.29
2023-01-25T05:57:00.606Z,1021.29
2023-01-25T05:58:00.589Z,1021.32
2023-01-25T05:59:00.581Z,1021.37
2023-01-25T06:00:00.598Z,1021.31
2023-01-25T06:01:01.815Z,1021.30
2023-01-25T06:02:00.583Z,1021.35
2023-01-25T06:03:00.652Z,1021.29
2023-01-25T06:04:05.555Z,1021.24
2023-01-25T06:05:00.526Z,1021.31
2023-01-25T06:06:00.495Z,1021.28
2023-01-25T06:07:00.491Z,1021.26
2023-01-25T06:08:00.505Z,1021.16
2023-01-25T06:09:00.491Z,1021.29
2023-01-25T06:10:00.471Z,1021.30
2023-01-25T06:11:00.456Z,1021.24
2023-01-25T06:12:00.462Z,1021.22
2023-01-25T06:13:00.420Z,1021.21
2023-01-25T06:14:00.408Z,1021.16
2023-01-25T06:15:05.442Z,1021.24
2023-01-25T06:16:00.435Z,1021.21
2023-01-25T06:17:00.424Z,1021.19
2023-01-25T06:18:00.372Z,1021.12
2023-01-25T06:19:00.354Z,1021.16
2023-01-25T06:20:00.383Z,1021.19
2023-01-25T06:21:00.355Z,1021.18
2023-01-25T06:22:00.330Z,1021.20
2023-01-25T06:23:00.311Z,1021.23
2023-01-25T06:24:00.382Z,1021.28
2023-01-25T06:25:00.301Z,1021.29
2023-01-25T06:26:05.305Z,1021.25
2023-01-25T06:27:00.270Z,1021.25
2023-01-25T06:28:00.257Z,1021.24
2023-01-25T06:29:00.250Z,1021.28
2023-01-25T06:30:00.256Z,1021.29
2023-01-25T06:31:00.269Z,1021.33
2023-01-25T06:32:00.238Z,1021.32
2023-01-25T06:33:00.212Z,1021.35
2023-01-25T06:34:01.183Z,1021.42
2023-01-25T06:35:00.187Z,1021.36
2023-01-25T06:36:00.178Z,1021.41
2023-01-25T06:37:05.179Z,1021.36
2023-01-25T06:38:00.152Z,1021.37
2023-01-25T06:39:00.140Z,1021.36
2023-01-25T06:40:00.167Z,1021.34
2023-01-25T06:41:00.150Z,1021.35
2023-01-25T06:42:00.101Z,1021.35
2023-01-25T06:43:00.095Z,1021.33
2023-01-25T06:44:00.140Z,1021.37
2023-01-25T06:45:00.122Z,1021.36
2023-01-25T06:46:00.089Z,1021.35
2023-01-25T06:47:00.047Z,1021.33
2023-01-25T06:48:05.061Z,1021.27
2023-01-25T06:49:00.043Z,1021.27
2023-01-25T06:50:00.020Z,1021.33
2023-01-25T06:51:00.026Z,1021.32
2023-01-25T06:51:59.996Z,1021.40
2023-01-25T06:52:59.987Z,1021.40
2023-01-25T06:53:59.972Z,1021.43
2023-01-25T06:54:59.976Z,1021.40
2023-01-25T06:55:59.988Z,1021.40
2023-01-25T06:56:59.939Z,1021.39
2023-01-25T06:57:59.927Z,1021.35
2023-01-25T06:59:04.944Z,1021.41
2023-01-25T06:59:59.905Z,1021.34
2023-01-25T07:00:59.907Z,1021.33
2023-01-25T07:01:59.960Z,1021.36
2023-01-25T07:02:59.985Z,1021.25
2023-01-25T07:03:59.871Z,1021.36
2023-01-25T07:04:59.852Z,1021.30
2023-01-25T07:05:59.882Z,1021.32
2023-01-25T07:06:59.838Z,1021.27
2023-01-25T07:07:59.822Z,1021.30
2023-01-25T07:08:59.808Z,1021.24
2023-01-25T07:10:04.822Z,1021.22
2023-01-25T07:10:59.797Z,1021.23
2023-01-25T07:11:59.893Z,1021.25
2023-01-25T07:12:59.764Z,1021.23
2023-01-25T07:13:59.759Z,1021.25
2023-01-25T07:14:59.747Z,1021.22
2023-01-25T07:15:59.752Z,1021.17
2023-01-25T07:17:01.035Z,1021.15
2023-01-25T07:18:14.800Z,1021.17
2023-01-25T07:19:00.700Z,1021.17
2023-01-25T07:19:59.691Z,1021.26
2023-01-25T07:21:04.729Z,1021.22
2023-01-25T07:21:59.724Z,1021.23
2023-01-25T07:23:02.056Z,1021.24
2023-01-25T07:23:59.694Z,1021.23
2023-01-25T07:24:59.635Z,1021.24
2023-01-25T07:25:59.631Z,1021.24
2023-01-25T07:26:59.644Z,1021.20
2023-01-25T07:27:59.623Z,1021.21
2023-01-25T07:28:59.593Z,1021.18
2023-01-25T07:29:59.577Z,1021.23
2023-01-25T07:30:59.578Z,1021.24
2023-01-25T07:32:04.593Z,1021.21
2023-01-25T07:32:59.552Z,1021.21
2023-01-25T07:33:59.565Z,1021.19
2023-01-25T07:34:59.528Z,1021.25
2023-01-25T07:35:59.522Z,1021.18
2023-01-25T07:36:59.508Z,1021.16
2023-01-25T07:37:59.507Z,1021.20
2023-01-25T07:38:59.480Z,1021.17
2023-01-25T07:39:59.472Z,1021.15
2023-01-25T07:40:59.480Z,1021.17
2023-01-25T07:41:59.455Z,1021.14
2023-01-25T07:43:04.480Z,1021.18
2023-01-25T07:43:59.430Z,1021.09
2023-01-25T07:44:59.424Z,1021.14
2023-01-25T07:45:59.415Z,1021.20
2023-01-25T07:46:59.394Z,1021.22
2023-01-25T07:47:59.381Z,1021.11
2023-01-25T07:48:59.383Z,1021.12
2023-01-25T07:49:59.359Z,1021.12
2023-01-25T07:50:59.360Z,1021.17
2023-01-25T07:51:59.342Z,1021.24
2023-01-25T07:52:59.333Z,1021.24
2023-01-25T07:54:04.348Z,1021.26
2023-01-25T07:54:59.324Z,1021.29
2023-01-25T07:55:59.302Z,1021.30
2023-01-25T07:56:59.299Z,1021.27
2023-01-25T07:57:59.273Z,1021.31
2023-01-25T07:58:59.377Z,1021.28
2023-01-25T07:59:59.263Z,1021.26
2023-01-25T08:00:59.273Z,1021.29
2023-01-25T08:01:59.232Z,1021.30
2023-01-25T08:02:59.222Z,1021.24
2023-01-25T08:03:59.226Z,1021.27
2023-01-25T08:05:04.224Z,1021.25
2023-01-25T08:05:59.197Z,1021.24
2023-01-25T08:06:59.181Z,1021.26
2023-01-25T08:07:59.181Z,1021.19
2023-01-25T08:08:59.153Z,1021.22
2023-01-25T08:09:59.153Z,1021.22
2023-01-25T08:10:59.144Z,1021.25
2023-01-25T08:11:59.152Z,1021.22
2023-01-25T08:12:59.112Z,1021.22
2023-01-25T08:13:59.098Z,1021.19
2023-01-25T08:14:59.179Z,1021.21
2023-01-25T08:16:04.127Z,1021.20
2023-01-25T08:16:59.067Z,1021.22
2023-01-25T08:17:59.064Z,1021.21
2023-01-25T08:18:59.047Z,1021.27
2023-01-25T08:19:59.034Z,1021.22
2023-01-25T08:20:59.036Z,1021.18
2023-01-25T08:21:59.042Z,1021.13
2023-01-25T08:22:59.003Z,1021.20
2023-01-25T08:23:59.125Z,1021.18
2023-01-25T08:24:58.978Z,1021.20
2023-01-25T08:25:58.981Z,1021.11
2023-01-25T08:27:03.983Z,1021.15
2023-01-25T08:27:58.950Z,1021.19
2023-01-25T08:28:58.947Z,1021.24
2023-01-25T08:29:58.927Z,1021.22
2023-01-25T08:30:58.954Z,1021.19
2023-01-25T08:31:59.053Z,1021.17
2023-01-25T08:32:58.889Z,1021.15
2023-01-25T08:33:58.926Z,1021.15
2023-01-25T08:34:58.884Z,1021.15
2023-01-25T08:35:58.873Z,1021.10
2023-01-25T08:36:58.894Z,1021.10
2023-01-25T08:38:03.859Z,1021.11
2023-01-25T08:38:58.845Z,1021.12
2023-01-25T08:39:58.819Z,1021.07
2023-01-25T08:40:58.813Z,1021.04
2023-01-25T08:41:58.801Z,1021.05
2023-01-25T08:42:58.783Z,1021.03
2023-01-25T08:43:58.788Z,1021.12
2023-01-25T08:44:58.760Z,1021.02
2023-01-25T08:45:58.752Z,1021.02
2023-01-25T08:46:58.778Z,1020.99
2023-01-25T08:47:58.734Z,1021.03
2023-01-25T08:49:03.812Z,1021.04
2023-01-25T08:49:58.710Z,1021.06
2023-01-25T08:50:58.702Z,1021.05
2023-01-25T08:51:58.698Z,1020.99
2023-01-25T08:52:58.688Z,1020.96
2023-01-25T08:53:58.661Z,1020.99
2023-01-25T08:54:58.657Z,1020.96
2023-01-25T08:55:58.647Z,1020.99
2023-01-25T08:56:58.657Z,1020.97
2023-01-25T08:57:58.649Z,1020.97
2023-01-25T08:58:58.606Z,1020.93
2023-01-25T09:00:03.619Z,1020.90
2023-01-25T09:00:58.622Z,1020.91
2023-01-25T09:01:58.611Z,1020.92
2023-01-25T09:02:58.581Z,1020.84
2023-01-25T09:03:58.593Z,1020.90
2023-01-25T09:04:58.543Z,1020.93
2023-01-25T09:05:58.545Z,1020.91
2023-01-25T09:06:58.539Z,1020.88
2023-01-25T09:07:58.515Z,1020.88
2023-01-25T09:08:58.508Z,1020.87
2023-01-25T09:09:58.490Z,1020.90
2023-01-25T09:11:03.502Z,1020.86
2023-01-25T09:11:58.483Z,1020.88
2023-01-25T09:12:58.469Z,1020.88
2023-01-25T09:13:58.442Z,1020.88
2023-01-25T09:14:58.429Z,1020.85
2023-01-25T09:15:58.422Z,1020.84
2023-01-25T09:16:58.422Z,1020.82
2023-01-25T09:17:58.400Z,1020.84
2023-01-25T09:18:58.414Z,1020.86
2023-01-25T09:19:58.393Z,1020.94
2023-01-25T09:20:58.371Z,1020.92
2023-01-25T09:22:03.395Z,1020.83
2023-01-25T09:22:58.341Z,1020.83
2023-01-25T09:24:07.255Z,1020.84
2023-01-25T09:24:59.321Z,1020.90
2023-01-25T09:25:58.309Z,1020.86
2023-01-25T09:27:00.128Z,1020.90
2023-01-25T09:27:58.296Z,1020.89
2023-01-25T09:28:58.277Z,1020.86
2023-01-25T09:30:02.132Z,1020.92
2023-01-25T09:31:18.529Z,1020.89
2023-01-25T09:31:59.409Z,1020.89
2023-01-25T09:33:03.325Z,1020.94
2023-01-25T09:33:58.226Z,1020.89
2023-01-25T09:34:58.233Z,1020.83
2023-01-25T09:35:58.203Z,1020.91
2023-01-25T09:36:58.197Z,1020.88
2023-01-25T09:37:58.179Z,1020.96
2023-01-25T09:38:58.175Z,1020.89
2023-01-25T09:39:58.153Z,1020.86
2023-01-25T09:40:58.163Z,1020.85
2023-01-25T09:41:58.437Z,1020.85
2023-01-25T09:42:58.118Z,1020.86
2023-01-25T09:44:13.794Z,1020.87
2023-01-25T09:44:59.101Z,1020.86
2023-01-25T09:45:58.160Z,1020.85
2023-01-25T09:46:58.095Z,1020.87
2023-01-25T09:47:58.099Z,1020.89
2023-01-25T09:49:07.393Z,1020.88
2023-01-25T09:49:59.043Z,1020.95
2023-01-25T09:50:58.050Z,1020.89
2023-01-25T09:51:58.036Z,1020.88
2023-01-25T09:52:58.008Z,1020.93
2023-01-25T09:53:58.001Z,1020.89
2023-01-25T09:55:03.007Z,1020.97
2023-01-25T09:55:58.009Z,1020.88
2023-01-25T09:56:57.983Z,1020.95
2023-01-25T09:57:57.963Z,1020.92
2023-01-25T09:58:57.944Z,1020.87
2023-01-25T09:59:57.932Z,1020.86
2023-01-25T10:00:57.927Z,1020.82
2023-01-25T10:01:57.982Z,1020.82
2023-01-25T10:02:57.961Z,1020.82
2023-01-25T10:03:57.892Z,1020.82
2023-01-25T10:04:57.880Z,1020.92
2023-01-25T10:06:02.914Z,1020.82
2023-01-25T10:07:01.786Z,1020.76
2023-01-25T10:07:57.868Z,1020.83
2023-01-25T10:08:57.847Z,1020.78
2023-01-25T10:09:57.821Z,1020.73
2023-01-25T10:10:57.856Z,1020.74
2023-01-25T10:11:57.805Z,1020.72
2023-01-25T10:12:57.812Z,1020.68
2023-01-25T10:13:57.786Z,1020.73
2023-01-25T10:14:57.774Z,1020.68
2023-01-25T10:15:57.791Z,1020.67
2023-01-25T10:17:02.763Z,1020.72
2023-01-25T10:17:57.744Z,1020.66
2023-01-25T10:18:57.726Z,1020.69
2023-01-25T10:19:57.720Z,1020.66
2023-01-25T10:20:57.696Z,1020.58
2023-01-25T10:21:57.715Z,1020.56
2023-01-25T10:22:57.682Z,1020.63
2023-01-25T10:23:57.744Z,1020.54
2023-01-25T10:24:57.660Z,1020.55
2023-01-25T10:25:57.641Z,1020.55
2023-01-25T10:26:57.627Z,1020.48
2023-01-25T10:28:02.656Z,1020.59
2023-01-25T10:28:57.610Z,1020.59
2023-01-25T10:29:57.597Z,1020.52
2023-01-25T10:30:57.789Z,1020.51
2023-01-25T10:31:57.627Z,1020.55
2023-01-25T10:32:57.602Z,1020.51
2023-01-25T10:33:57.551Z,1020.53
2023-01-25T10:34:57.818Z,1020.49
2023-01-25T10:35:57.534Z,1020.46
2023-01-25T10:36:57.518Z,1020.43
2023-01-25T10:37:57.525Z,1020.47
2023-01-25T10:39:02.525Z,1020.40
2023-01-25T10:39:57.484Z,1020.47
2023-01-25T10:40:57.477Z,1020.41
2023-01-25T10:41:57.475Z,1020.43
2023-01-25T10:42:57.450Z,1020.42
2023-01-25T10:43:57.453Z,1020.36
2023-01-25T10:44:57.465Z,1020.34
2023-01-25T10:45:57.421Z,1020.32
2023-01-25T10:46:57.424Z,1020.29
2023-01-25T10:47:57.435Z,1020.32
2023-01-25T10:48:57.431Z,1020.34
2023-01-25T10:50:02.419Z,1020.29
2023-01-25T10:50:57.478Z,1020.23
2023-01-25T10:51:57.379Z,1020.26
2023-01-25T10:52:57.346Z,1020.21
2023-01-25T10:53:57.458Z,1020.13
2023-01-25T10:54:57.318Z,1020.16
2023-01-25T10:55:57.306Z,1020.22
2023-01-25T10:56:57.291Z,1020.19
2023-01-25T10:57:57.304Z,1020.19
2023-01-25T10:58:57.286Z,1020.10
2023-01-25T10:59:57.260Z,1020.12
2023-01-25T11:01:02.271Z,1020.11
2023-01-25T11:01:57.305Z,1020.08
2023-01-25T11:02:57.302Z,1020.14
2023-01-25T11:03:57.242Z,1020.11
2023-01-25T11:04:57.210Z,1020.10
2023-01-25T11:05:57.190Z,1020.04
2023-01-25T11:06:57.179Z,1020.02
2023-01-25T11:07:57.177Z,1020.07
2023-01-25T11:08:57.167Z,1019.95
2023-01-25T11:09:57.174Z,1019.89
2023-01-25T11:10:57.134Z,1019.90
2023-01-25T11:12:02.175Z,1019.92
2023-01-25T11:12:57.110Z,1019.92
2023-01-25T11:13:57.157Z,1019.90
2023-01-25T11:14:57.109Z,1019.84
2023-01-25T11:15:57.167Z,1019.92
2023-01-25T11:16:57.073Z,1019.84
2023-01-25T11:17:57.063Z,1019.77
2023-01-25T11:18:57.059Z,1019.78
2023-01-25T11:19:57.037Z,1019.75
2023-01-25T11:20:57.025Z,1019.74
2023-01-25T11:21:57.013Z,1019.68
2023-01-25T11:23:02.021Z,1019.69
2023-01-25T11:23:56.994Z,1019.70
2023-01-25T11:24:56.995Z,1019.72
2023-01-25T11:25:56.994Z,1019.69
2023-01-25T11:26:56.958Z,1019.61
2023-01-25T11:27:56.962Z,1019.65
2023-01-25T11:28:56.935Z,1019.59
2023-01-25T11:29:56.935Z,1019.59
2023-01-25T11:30:57.061Z,1019.58
2023-01-25T11:31:56.941Z,1019.61
2023-01-25T11:32:56.892Z,1019.57
2023-01-25T11:34:01.911Z,1019.52
2023-01-25T11:34:56.876Z,1019.52
2023-01-25T11:35:56.854Z,1019.52
2023-01-25T11:36:56.858Z,1019.50
2023-01-25T11:37:56.854Z,1019.46
2023-01-25T11:38:56.829Z,1019.42
2023-01-25T11:39:56.831Z,1019.41
2023-01-25T11:40:56.814Z,1019.40
2023-01-25T11:41:56.807Z,1019.38
2023-01-25T11:42:56.792Z,1019.40
2023-01-25T11:43:56.990Z,1019.28
2023-01-25T11:45:01.789Z,1019.31
2023-01-25T11:45:56.745Z,1019.34
2023-01-25T11:46:56.730Z,1019.27
2023-01-25T11:47:56.725Z,1019.28
2023-01-25T11:48:56.711Z,1019.27
2023-01-25T11:49:56.715Z,1019.26
2023-01-25T11:50:56.690Z,1019.28
2023-01-25T11:51:56.680Z,1019.28
2023-01-25T11:52:56.676Z,1019.19
2023-01-25T11:53:56.667Z,1019.17
2023-01-25T11:54:56.653Z,1019.15
2023-01-25T11:56:01.654Z,1019.12
2023-01-25T11:56:56.622Z,1019.15
2023-01-25T11:57:56.629Z,1019.10
2023-01-25T11:58:56.597Z,1019.12
2023-01-25T11:59:56.606Z,1019.10
2023-01-25T12:00:56.572Z,1019.05
2023-01-25T12:01:56.563Z,1019.05
2023-01-25T12:02:56.565Z,1018.98
2023-01-25T12:03:56.556Z,1019.04
2023-01-25T12:04:56.538Z,1019.02
2023-01-25T12:05:56.520Z,1018.99
2023-01-25T12:07:01.554Z,1018.94
2023-01-25T12:07:56.497Z,1018.94
2023-01-25T12:08:56.491Z,1018.89
2023-01-25T12:09:56.495Z,1018.89
2023-01-25T12:10:56.473Z,1018.82
2023-01-25T12:11:56.450Z,1018.86
2023-01-25T12:12:56.457Z,1018.84
2023-01-25T12:13:56.487Z,1018.81
2023-01-25T12:14:56.441Z,1018.84
2023-01-25T12:15:56.449Z,1018.80
2023-01-25T12:16:56.447Z,1018.83
2023-01-25T12:18:01.408Z,1018.84
2023-01-25T12:18:56.371Z,1018.76
2023-01-25T12:19:56.374Z,1018.76
2023-01-25T12:20:56.352Z,1018.71
2023-01-25T12:21:56.339Z,1018.76
2023-01-25T12:22:56.340Z,1018.69
2023-01-25T12:23:56.342Z,1018.72
2023-01-25T12:24:56.305Z,1018.61
2023-01-25T12:25:56.317Z,1018.59
2023-01-25T12:26:56.292Z,1018.58
2023-01-25T12:27:56.277Z,1018.56
2023-01-25T12:29:01.300Z,1018.47
2023-01-25T12:29:56.263Z,1018.46
2023-01-25T12:30:56.428Z,1018.48
2023-01-25T12:31:56.244Z,1018.40
2023-01-25T12:33:02.493Z,1018.44
2023-01-25T12:33:57.208Z,1018.42
2023-01-25T12:34:56.192Z,1018.38
2023-01-25T12:35:56.192Z,1018.27
2023-01-25T12:36:56.172Z,1018.27
2023-01-25T12:37:56.165Z,1018.22
2023-01-25T12:38:56.145Z,1018.25